createdAt,value
2023-05-14T00:02:30.409Z,11.54
2023-05-14T00:05:22.470Z,11.50
2023-05-14T00:08:14.482Z,11.47
2023-05-14T00:11:08.903Z,11.43
2023-05-14T00:14:00.893Z,11.41
2023-05-14T00:16:52.939Z,11.40
2023-05-14T00:19:33.670Z,11.37
2023-05-14T00:22:25.728Z,11.34
2023-05-14T00:25:17.686Z,11.30
2023-05-14T00:28:09.658Z,11.26
2023-05-14T00:31:01.696Z,11.21
2023-05-14T00:33:53.829Z,11.16
2023-05-14T00:36:45.806Z,11.13
2023-05-14T00:39:37.875Z,11.12
2023-05-14T00:42:29.875Z,11.09
2023-05-14T00:45:22.201Z,11.07
2023-05-14T00:48:14.651Z,11.04
2023-05-14T00:51:07.271Z,10.99
2023-05-14T00:53:59.557Z,10.95
2023-05-14T00:56:51.788Z,10.92
2023-05-14T00:59:43.779Z,10.90
2023-05-14T01:02:35.843Z,10.86
2023-05-14T01:05:32.159Z,10.83
2023-05-14T01:08:47.674Z,10.81
2023-05-14T01:11:46.395Z,10.78
2023-05-14T01:14:46.249Z,10.73
2023-05-14T01:17:43.354Z,10.70
2023-05-14T01:20:35.971Z,10.67
2023-05-14T01:23:28.084Z,10.63
2023-05-14T01:26:20.844Z,10.58
2023-05-14T01:29:20.594Z,10.55
2023-05-14T01:32:14.441Z,10.53
2023-05-14T01:35:09.026Z,10.50
2023-05-14T01:38:02.770Z,10.45
2023-05-14T01:40:55.999Z,10.40
2023-05-14T01:43:48.516Z,10.36
2023-05-14T01:46:40.632Z,10.33
2023-05-14T01:49:32.721Z,10.28
2023-05-14T01:52:24.724Z,10.25
2023-05-14T01:55:18.319Z,10.23
2023-05-14T01:58:10.585Z,10.20
2023-05-14T02:01:02.621Z,10.18
2023-05-14T02:03:54.691Z,10.13
2023-05-14T02:06:46.695Z,10.09
2023-05-14T02:09:40.020Z,10.06
2023-05-14T02:12:32.047Z,10.04
2023-05-14T02:15:24.012Z,10.03
2023-05-14T02:18:16.056Z,10.01
2023-05-14T02:20:59.517Z,9.98
2023-05-14T02:23:51.600Z,9.95
2023-05-14T02:26:43.601Z,9.93
2023-05-14T02:29:35.583Z,9.91
2023-05-14T02:32:27.730Z,9.87
2023-05-14T02:35:20.123Z,9.83
2023-05-14T02:38:12.232Z,9.80
2023-05-14T02:40:46.599Z,9.78
2023-05-14T02:43:38.622Z,9.77
2023-05-14T02:46:31.521Z,9.75
2023-05-14T02:49:23.578Z,9.73
2023-05-14T02:52:15.695Z,9.71
2023-05-14T02:55:09.201Z,9.67
2023-05-14T02:58:01.177Z,9.67
2023-05-14T03:00:53.531Z,9.66
2023-05-14T03:03:26.024Z,9.65
2023-05-14T03:06:14.622Z,9.64
2023-05-14T03:09:07.117Z,9.60
2023-05-14T03:11:42.107Z,9.59
2023-05-14T03:14:34.242Z,9.57
2023-05-14T03:17:26.360Z,9.56
2023-05-14T03:20:18.416Z,9.56
2023-05-14T03:23:10.518Z,9.56
2023-05-14T03:26:03.750Z,9.55
2023-05-14T03:28:55.952Z,9.56
2023-05-14T03:31:48.081Z,9.59
2023-05-14T03:34:22.487Z,9.61
2023-05-14T03:37:14.491Z,9.63
2023-05-14T03:40:08.256Z,9.65
2023-05-14T03:43:00.255Z,9.68
2023-05-14T03:45:53.115Z,9.70
2023-05-14T03:48:45.171Z,9.74
2023-05-14T03:51:37.236Z,9.77
2023-05-14T03:54:22.555Z,9.79
2023-05-14T03:57:14.532Z,9.85
2023-05-14T03:59:56.489Z,9.88
2023-05-14T04:02:48.591Z,9.94
2023-05-14T04:05:29.410Z,9.99
2023-05-14T04:08:21.434Z,10.04
2023-05-14T04:11:13.387Z,10.09
2023-05-14T04:14:05.568Z,10.14
2023-05-14T04:16:58.961Z,10.20
2023-05-14T04:19:43.470Z,10.24
2023-05-14T04:22:35.558Z,10.30
2023-05-14T04:25:27.754Z,10.35
2023-05-14T04:28:19.813Z,10.39
2023-05-14T04:31:11.893Z,10.44
2023-05-14T04:34:03.885Z,10.47
2023-05-14T04:36:56.002Z,10.52
2023-05-14T04:39:48.038Z,10.56
2023-05-14T04:42:40.041Z,10.63
2023-05-14T04:45:34.332Z,10.67
2023-05-14T04:48:27.750Z,10.72
2023-05-14T04:51:19.665Z,10.79
2023-05-14T04:54:11.754Z,10.85
2023-05-14T04:57:03.781Z,10.93
2023-05-14T04:59:55.810Z,11.00
2023-05-14T05:02:39.389Z,11.07
2023-05-14T05:05:31.465Z,11.13
2023-05-14T05:08:23.641Z,11.23
2023-05-14T05:11:15.647Z,11.34
2023-05-14T05:14:07.726Z,11.45
2023-05-14T05:16:50.691Z,11.56
2023-05-14T05:19:44.276Z,11.67
2023-05-14T05:22:36.627Z,11.81
2023-05-14T05:25:28.868Z,11.96
2023-05-14T05:28:20.858Z,12.15
2023-05-14T05:31:12.993Z,12.31
2023-05-14T05:34:05.977Z,12.47
2023-05-14T05:36:57.927Z,12.73
2023-05-14T05:39:49.892Z,13.09
2023-05-14T05:42:41.854Z,13.55
2023-05-14T05:45:33.981Z,14.09
2023-05-14T05:48:25.882Z,14.71
2023-05-14T05:51:17.864Z,15.36
2023-05-14T05:54:09.814Z,16.08
2023-05-14T05:56:44.348Z,16.79
2023-05-14T05:59:26.321Z,17.48
2023-05-14T06:02:18.354Z,18.12
2023-05-14T06:05:11.808Z,18.78
2023-05-14T06:08:04.672Z,19.39
2023-05-14T06:10:49.884Z,20.00
2023-05-14T06:13:31.831Z,20.44
2023-05-14T06:16:23.903Z,20.95
2023-05-14T06:19:16.038Z,21.46
2023-05-14T06:22:08.410Z,21.74
2023-05-14T06:25:00.331Z,22.12
2023-05-14T06:27:52.285Z,22.36
2023-05-14T06:30:44.273Z,22.42
2023-05-14T06:33:36.270Z,22.57
2023-05-14T06:36:18.390Z,22.63
2023-05-14T06:39:10.883Z,22.70
2023-05-14T06:42:02.900Z,22.64
2023-05-14T06:44:54.935Z,22.52
2023-05-14T06:47:46.942Z,22.59
2023-05-14T06:50:27.793Z,22.71
2023-05-14T06:53:02.217Z,22.84
2023-05-14T06:55:54.335Z,22.89
2023-05-14T06:58:42.738Z,22.90
2023-05-14T07:01:34.740Z,23.06
2023-05-14T07:04:26.717Z,23.10
2023-05-14T07:07:21.083Z,23.11
2023-05-14T07:10:13.282Z,23.10
2023-05-14T07:13:03.248Z,22.95
2023-05-14T07:15:56.025Z,22.66
2023-05-14T07:18:31.138Z,22.42
2023-05-14T07:21:23.256Z,22.14
2023-05-14T07:24:15.302Z,21.89
2023-05-14T07:27:08.563Z,21.56
2023-05-14T07:30:00.556Z,21.29
2023-05-14T07:32:52.822Z,20.95
2023-05-14T07:35:44.832Z,20.59
2023-05-14T07:38:36.958Z,20.35
2023-05-14T07:41:26.233Z,20.14
2023-05-14T07:44:18.331Z,20.01
2023-05-14T07:47:10.740Z,19.95
2023-05-14T07:50:03.419Z,19.83
2023-05-14T07:52:55.475Z,19.69
2023-05-14T07:55:49.532Z,19.53
2023-05-14T07:58:42.138Z,19.41
2023-05-14T08:01:19.389Z,19.35
2023-05-14T08:04:11.865Z,19.35
2023-05-14T08:07:04.011Z,19.35
2023-05-14T08:09:56.017Z,19.33
2023-05-14T08:12:48.015Z,19.31
2023-05-14T08:15:39.976Z,19.38
2023-05-14T08:18:32.104Z,19.45
2023-05-14T08:21:24.116Z,19.51
2023-05-14T08:24:16.206Z,19.59
2023-05-14T08:27:08.380Z,19.72
2023-05-14T08:30:00.410Z,19.79
2023-05-14T08:32:52.851Z,19.85
2023-05-14T08:35:27.876Z,19.92
2023-05-14T08:37:59.840Z,19.98
2023-05-14T08:40:57.725Z,20.06
2023-05-14T08:43:58.064Z,20.18
2023-05-14T08:46:52.921Z,20.31
2023-05-14T08:49:47.468Z,20.46
2023-05-14T08:52:40.504Z,20.54
2023-05-14T08:55:33.377Z,20.54
2023-05-14T08:58:26.687Z,20.58
2023-05-14T09:01:19.921Z,20.67
2023-05-14T09:04:12.681Z,20.76
2023-05-14T09:06:49.831Z,20.86
2023-05-14T09:09:42.070Z,21.00
2023-05-14T09:12:34.104Z,21.13
2023-05-14T09:15:28.934Z,21.23
2023-05-14T09:18:21.352Z,21.24
2023-05-14T09:21:02.713Z,21.25
2023-05-14T09:23:59.656Z,21.36
2023-05-14T09:26:54.258Z,21.42
2023-05-14T09:29:46.246Z,21.54
2023-05-14T09:32:19.083Z,21.58
2023-05-14T09:35:17.595Z,21.71
2023-05-14T09:38:10.327Z,21.80
2023-05-14T09:41:02.544Z,21.95
2023-05-14T09:43:56.833Z,22.08
2023-05-14T09:46:50.000Z,22.15
2023-05-14T09:49:42.399Z,22.16
2023-05-14T09:52:34.382Z,22.15
2023-05-14T09:55:17.696Z,22.15
2023-05-14T09:58:09.816Z,22.19
2023-05-14T10:01:04.237Z,22.33
2023-05-14T10:03:58.620Z,22.44
2023-05-14T10:06:54.277Z,22.51
2023-05-14T10:09:47.481Z,22.61
2023-05-14T10:12:41.753Z,22.57
2023-05-14T10:15:38.705Z,22.52
2023-05-14T10:18:37.561Z,22.54
2023-05-14T10:21:35.015Z,22.61
2023-05-14T10:24:27.863Z,22.70
2023-05-14T10:27:09.327Z,22.72
2023-05-14T10:30:01.587Z,22.74
2023-05-14T10:33:14.375Z,22.85
2023-05-14T10:36:08.894Z,22.96
2023-05-14T10:39:05.080Z,23.00
2023-05-14T10:41:57.177Z,22.92
2023-05-14T10:44:55.975Z,22.93
2023-05-14T10:47:39.251Z,22.98
2023-05-14T10:50:32.349Z,23.05
2023-05-14T10:53:34.258Z,23.08
2023-05-14T10:56:16.246Z,23.07
2023-05-14T10:59:09.142Z,23.06
2023-05-14T11:02:01.120Z,23.00
2023-05-14T11:05:03.565Z,22.95
2023-05-14T11:07:40.171Z,22.98
2023-05-14T11:10:32.266Z,23.00
2023-05-14T11:13:24.351Z,23.05
2023-05-14T11:16:23.367Z,23.18
2023-05-14T11:19:07.008Z,23.31
2023-05-14T11:22:01.210Z,23.38
2023-05-14T11:24:53.509Z,23.42
2023-05-14T11:27:46.899Z,23.42
2023-05-14T11:30:39.048Z,23.42
2023-05-14T11:33:31.396Z,23.37
2023-05-14T11:36:23.512Z,23.36
2023-05-14T11:39:21.646Z,23.24
2023-05-14T11:42:16.737Z,23.08
2023-05-14T11:45:06.287Z,23.00
2023-05-14T11:47:58.406Z,22.95
2023-05-14T11:50:51.440Z,22.91
2023-05-14T11:53:43.516Z,22.96
2023-05-14T11:56:35.607Z,22.94
2023-05-14T11:59:28.927Z,22.90
2023-05-14T12:02:22.849Z,22.88
2023-05-14T12:05:16.494Z,22.87
2023-05-14T12:08:23.368Z,22.89
2023-05-14T12:11:15.339Z,22.89
2023-05-14T12:14:15.992Z,22.90
2023-05-14T12:17:15.030Z,22.88
2023-05-14T12:20:10.382Z,22.82
2023-05-14T12:23:02.378Z,22.77
2023-05-14T12:25:54.552Z,22.77
2023-05-14T12:28:50.133Z,22.85
2023-05-14T12:31:48.252Z,22.91
2023-05-14T12:34:40.714Z,22.95
2023-05-14T12:37:33.277Z,23.00
2023-05-14T12:40:25.629Z,23.11
2023-05-14T12:43:17.900Z,23.23
2023-05-14T12:46:09.951Z,23.36
2023-05-14T12:49:01.997Z,23.47
2023-05-14T12:52:07.789Z,23.56
2023-05-14T12:55:09.934Z,23.49
2023-05-14T12:57:42.030Z,23.44
2023-05-14T13:00:34.037Z,23.45
2023-05-14T13:03:26.448Z,23.51
2023-05-14T13:06:18.592Z,23.58
2023-05-14T13:09:10.597Z,23.64
2023-05-14T13:12:02.908Z,23.65
2023-05-14T13:14:44.497Z,23.64
2023-05-14T13:17:36.922Z,23.67
2023-05-14T13:20:30.959Z,23.64
2023-05-14T13:23:22.960Z,23.59
2023-05-14T13:26:15.339Z,23.55
2023-05-14T13:28:56.233Z,23.54
2023-05-14T13:31:48.250Z,23.47
2023-05-14T13:34:40.254Z,23.38
2023-05-14T13:37:32.185Z,23.24
2023-05-14T13:40:24.327Z,23.09
2023-05-14T13:43:16.973Z,23.06
2023-05-14T13:46:09.862Z,23.01
2023-05-14T13:49:02.113Z,22.95
2023-05-14T13:51:54.270Z,22.90
2023-05-14T13:54:46.276Z,22.89
2023-05-14T13:57:39.720Z,22.88
2023-05-14T14:00:16.147Z,22.86
2023-05-14T14:03:08.689Z,22.80
2023-05-14T14:06:00.968Z,22.75
2023-05-14T14:08:52.994Z,22.72
2023-05-14T14:11:45.024Z,22.73
2023-05-14T14:14:36.994Z,22.73
2023-05-14T14:17:28.998Z,22.66
2023-05-14T14:20:00.819Z,22.59
2023-05-14T14:22:52.842Z,22.56
2023-05-14T14:25:30.394Z,22.52
2023-05-14T14:28:22.402Z,22.50
2023-05-14T14:31:14.654Z,22.48
2023-05-14T14:34:06.673Z,22.46
2023-05-14T14:36:58.661Z,22.43
2023-05-14T14:39:32.785Z,22.41
2023-05-14T14:42:24.780Z,22.38
2023-05-14T14:45:06.661Z,22.33
2023-05-14T14:47:44.503Z,22.28
2023-05-14T14:50:36.603Z,22.23
2023-05-14T14:53:28.649Z,22.16
2023-05-14T14:56:21.226Z,22.08
2023-05-14T14:59:13.218Z,21.97
2023-05-14T15:02:05.591Z,21.88
2023-05-14T15:04:58.100Z,21.75
2023-05-14T15:07:33.272Z,21.63
2023-05-14T15:10:25.453Z,21.49
2023-05-14T15:13:17.624Z,21.37
2023-05-14T15:16:10.130Z,21.28
2023-05-14T15:19:02.161Z,21.23
2023-05-14T15:21:37.358Z,21.22
2023-05-14T15:24:29.398Z,21.17
2023-05-14T15:27:12.681Z,21.12
2023-05-14T15:30:06.279Z,21.09
2023-05-14T15:32:58.329Z,21.09
2023-05-14T15:35:50.281Z,21.08
2023-05-14T15:38:42.280Z,21.06
2023-05-14T15:41:34.423Z,21.03
2023-05-14T15:44:26.420Z,20.97
2023-05-14T15:47:18.288Z,20.90
2023-05-14T15:50:11.719Z,20.84
2023-05-14T15:53:04.047Z,20.80
2023-05-14T15:55:56.400Z,20.77
2023-05-14T15:58:48.449Z,20.71
2023-05-14T16:01:29.286Z,20.68
2023-05-14T16:04:21.317Z,20.65
2023-05-14T16:07:13.390Z,20.59
2023-05-14T16:10:06.005Z,20.53
2023-05-14T16:12:57.979Z,20.51
2023-05-14T16:15:50.042Z,20.47
2023-05-14T16:18:43.220Z,20.42
2023-05-14T16:21:35.372Z,20.43
2023-05-14T16:24:27.448Z,20.41
2023-05-14T16:27:19.534Z,20.38
2023-05-14T16:30:12.780Z,20.33
2023-05-14T16:32:50.200Z,20.31
2023-05-14T16:35:42.313Z,20.31
2023-05-14T16:38:35.538Z,20.26
2023-05-14T16:41:22.616Z,20.23
2023-05-14T16:44:14.659Z,20.22
2023-05-14T16:47:07.306Z,20.18
2023-05-14T16:49:59.275Z,20.17
2023-05-14T16:52:51.322Z,20.16
2023-05-14T16:55:43.337Z,20.13
2023-05-14T16:58:35.367Z,20.11
2023-05-14T17:01:27.398Z,20.11
2023-05-14T17:04:16.072Z,20.11
2023-05-14T17:07:08.474Z,20.10
2023-05-14T17:10:00.694Z,20.06
2023-05-14T17:12:35.760Z,20.04
2023-05-14T17:15:18.165Z,20.03
2023-05-14T17:18:11.929Z,20.02
2023-05-14T17:21:05.781Z,19.98
2023-05-14T17:23:58.094Z,19.95
2023-05-14T17:26:30.378Z,19.88
2023-05-14T17:29:22.344Z,19.85
2023-05-14T17:32:14.339Z,19.82
2023-05-14T17:35:07.110Z,19.81
2023-05-14T17:37:42.853Z,19.78
2023-05-14T17:40:34.997Z,19.75
2023-05-14T17:43:27.042Z,19.74
2023-05-14T17:46:19.136Z,19.73
2023-05-14T17:49:11.784Z,19.72
2023-05-14T17:52:04.467Z,19.72
2023-05-14T17:54:56.438Z,19.73
2023-05-14T17:57:48.563Z,19.70
2023-05-14T18:00:40.733Z,19.67
2023-05-14T18:03:32.828Z,19.64
2023-05-14T18:06:24.889Z,19.59
2023-05-14T18:09:16.842Z,19.53
2023-05-14T18:12:10.065Z,19.42
2023-05-14T18:15:02.060Z,19.32
2023-05-14T18:17:50.114Z,19.22
2023-05-14T18:20:42.183Z,19.11
2023-05-14T18:23:34.177Z,19.01
2023-05-14T18:26:26.637Z,18.93
2023-05-14T18:29:01.468Z,18.87
2023-05-14T18:36:15.351Z,18.54
2023-05-14T18:39:07.482Z,18.38
2023-05-14T18:41:59.564Z,18.31
2023-05-14T18:44:51.496Z,18.27
2023-05-14T18:47:43.607Z,18.25
2023-05-14T18:50:18.380Z,18.25
2023-05-14T18:53:10.500Z,18.23
2023-05-14T18:56:03.495Z,18.21
2023-05-14T18:58:56.240Z,18.21
2023-05-14T19:01:48.329Z,18.20
2023-05-14T19:04:51.165Z,18.16
2023-05-14T19:07:43.944Z,18.12
2023-05-14T19:10:35.974Z,18.07
2023-05-14T19:13:30.158Z,18.04
2023-05-14T19:16:22.318Z,18.01
2023-05-14T19:19:14.946Z,17.98
2023-05-14T19:22:07.238Z,17.95
2023-05-14T19:24:59.312Z,17.94
2023-05-14T19:27:53.570Z,17.93
2023-05-14T19:30:45.595Z,17.90
2023-05-14T19:33:37.535Z,17.85
2023-05-14T19:36:31.472Z,17.81
2023-05-14T19:39:08.957Z,17.78
2023-05-14T19:42:00.987Z,17.73
2023-05-14T19:44:53.046Z,17.69
2023-05-14T19:47:45.094Z,17.64
2023-05-14T19:50:37.794Z,17.58
2023-05-14T19:53:30.599Z,17.53
2023-05-14T19:56:05.642Z,17.49
2023-05-14T19:58:57.680Z,17.44
2023-05-14T20:01:49.725Z,17.40
2023-05-14T20:04:26.049Z,17.37
2023-05-14T20:07:03.780Z,17.34
2023-05-14T20:09:55.782Z,17.30
2023-05-14T20:12:47.732Z,17.24
2023-05-14T20:15:22.346Z,17.21
2023-05-14T20:18:14.487Z,17.19
2023-05-14T20:20:58.130Z,17.16
2023-05-14T20:23:50.141Z,17.11
2023-05-14T20:26:42.165Z,17.07
2023-05-14T20:29:22.907Z,17.04
2023-05-14T20:32:15.543Z,17.01
2023-05-14T20:35:08.945Z,16.99
2023-05-14T20:38:02.094Z,16.96
2023-05-14T20:40:36.972Z,16.92
2023-05-14T20:43:30.263Z,16.90
2023-05-14T20:46:22.397Z,16.89
2023-05-14T20:49:14.399Z,16.88
2023-05-14T20:52:07.021Z,16.85
2023-05-14T20:55:00.854Z,16.82
2023-05-14T20:57:53.916Z,16.81
2023-05-14T21:00:45.912Z,16.79
2023-05-14T21:03:38.136Z,16.78
2023-05-14T21:06:30.175Z,16.76
2023-05-14T21:09:23.678Z,16.74
2023-05-14T21:12:15.790Z,16.71
2023-05-14T21:15:09.338Z,16.67
2023-05-14T21:18:02.612Z,16.63
2023-05-14T21:20:54.601Z,16.60
2023-05-14T21:23:46.619Z,16.58
2023-05-14T21:26:40.353Z,16.55
2023-05-14T21:29:32.382Z,16.52
2023-05-14T21:32:24.415Z,16.50
2023-05-14T21:35:16.784Z,16.46
2023-05-14T21:38:09.838Z,16.42
2023-05-14T21:40:44.767Z,16.38
2023-05-14T21:43:26.919Z,16.34
2023-05-14T21:46:19.129Z,16.26
2023-05-14T21:48:54.046Z,16.21
2023-05-14T21:51:46.673Z,16.16
2023-05-14T21:54:38.731Z,16.10
2023-05-14T21:57:34.077Z,16.09
2023-05-14T22:00:26.600Z,16.10
2023-05-14T22:03:18.706Z,16.10
2023-05-14T22:06:10.838Z,16.07
2023-05-14T22:09:03.036Z,16.04
2023-05-14T22:11:55.533Z,15.99
2023-05-14T22:14:47.699Z,15.94
2023-05-14T22:17:39.934Z,15.85
2023-05-14T22:20:31.958Z,15.79
2023-05-14T22:23:23.963Z,15.74
2023-05-14T22:26:15.977Z,15.72
2023-05-14T22:29:07.971Z,15.71
2023-05-14T22:31:59.995Z,15.71
2023-05-14T22:34:52.542Z,15.66
2023-05-14T22:37:44.572Z,15.63
2023-05-14T22:40:36.522Z,15.58
2023-05-14T22:43:28.470Z,15.53
2023-05-14T22:46:21.097Z,15.45
2023-05-14T22:49:13.340Z,15.39
2023-05-14T22:52:05.798Z,15.33
2023-05-14T22:54:50.830Z,15.23
2023-05-14T22:57:42.939Z,15.16
2023-05-14T23:00:35.047Z,15.13
2023-05-14T23:03:09.612Z,15.11
2023-05-14T23:06:01.598Z,15.02
2023-05-14T23:08:53.852Z,14.97
2023-05-14T23:11:46.094Z,14.96
2023-05-14T23:14:38.084Z,14.90
2023-05-14T23:17:30.239Z,14.85
2023-05-14T23:20:22.337Z,14.81
2023-05-14T23:23:14.276Z,14.75
2023-05-14T23:26:06.735Z,14.71
2023-05-14T23:28:58.690Z,14.68
2023-05-14T23:31:50.707Z,14.65
2023-05-14T23:34:42.819Z,14.57
2023-05-14T23:37:36.796Z,14.54
2023-05-14T23:40:28.755Z,14.54
2023-05-14T23:43:20.747Z,14.53
2023-05-14T23:46:13.083Z,14.52
2023-05-14T23:49:05.218Z,14.47
2023-05-14T23:51:57.592Z,14.42
2023-05-14T23:54:49.556Z,14.40
2023-05-14T23:57:42.022Z,14.40
